Churchill Airport
CYYQ : rendu visible

Aérodrome :











RETROUVEZ-NOUS SUR...

 
LOGIN :

S'inscrire | Disclaimer

   EN    FR    IT 

 









Légende :    VFR   VFR Marginal   IFR   IFR Intensif   IFR Très Intensif
Visi : 
Plafond : 
>= 8 km
>= 3000ft
5 à 8 km
1000 à 3000 ft
1500m à 5 km
500 à 1000 ft
800 à 1500m
200 à 500 ft
< 800m
< 200 ft
Symboles :   Orages  Brouillard  Fortes neiges  Fortes précipitations  Vent > 20 kt






- Altitude de l'aérodrome : 94 ft
- Code IATA : YYQ


CYYQ - Churchill

DERNIER METAR :
  • 211500Z 30010KT 15SM FEW015 M20/M22 A3001 RMK SC1 SLP168

METARs EXPIRÉS :
  • 211400Z 30013KT 15SM FEW015 M21/M23 A3002 RMK SC1 SLP170
  • 211300Z 30014KT 15SM FEW015 M20/M22 A3003 RMK SC1 SC TR SLP174

TAF TAF CYYQ
Valide du 21 à 12h jusqu'au 22 à 12h UTC


211140Z 2112/2212 33020G30KT P6SM FEW015 FEW080
TEMPO 2112/2115 4SM -SN BLSN SCT008 BKN015 BKN080
FM211500 30015G25KT P6SM FEW015
FM212000 28012KT P6SM SCT160
FM220200 22008KT P6SM -SN BKN025 OVC080
TEMPO 2202/2206 3SM -SN BKN020 OVC080
FM220600 18008KT 2SM -SN SCT008 OVC015 RMK NXT FCST BY 211800Z



MET'MAP, la Météo Aéronautique d'un coup d'oeil ! - Copyright ORBIFLY Décembre 2007 - Disclaimer

ORBIFLY MET'MAP TEAM :

Programmation & Développement : Alexandra Zaïnal
Conception & Développement : Baudouin d'Aumeries
Co-Programmation & Développement : Marc-Olivier Méhu
Soutien technique & logistique : Manuel Goepfert

Contact : metmap@orbifly.com




SOURCES & CREDITS :

   NOAA       Earth
Advisory